createdAt,value
2024-02-21T00:01:23.609Z,101976.13
2024-02-21T00:03:51.112Z,101962.63
2024-02-21T00:06:18.475Z,101969.31
2024-02-21T00:08:45.761Z,101959.94
2024-02-21T00:11:14.709Z,101970.00
2024-02-21T00:13:42.063Z,101920.97
2024-02-21T00:16:09.382Z,101950.22
2024-02-21T00:18:36.879Z,101908.44
2024-02-21T00:21:04.297Z,101961.56
2024-02-21T00:23:31.591Z,101938.25
2024-02-21T00:26:01.869Z,101917.84
2024-02-21T00:28:30.554Z,101958.47
2024-02-21T00:30:57.743Z,101952.59
2024-02-21T00:33:25.085Z,101949.28
2024-02-21T00:35:52.354Z,101903.97
2024-02-21T00:38:19.549Z,101952.56
2024-02-21T00:40:47.665Z,101940.72
2024-02-21T00:43:18.608Z,101929.31
2024-02-21T00:45:51.785Z,101931.91
2024-02-21T00:48:38.994Z,101913.09
2024-02-21T00:51:06.302Z,101932.44
2024-02-21T00:53:33.538Z,101923.50
2024-02-21T00:56:00.808Z,101896.75
2024-02-21T00:58:32.552Z,101892.69
2024-02-21T01:01:01.847Z,101885.00
2024-02-21T01:03:32.955Z,101880.06
2024-02-21T01:06:00.424Z,101898.91
2024-02-21T01:08:27.663Z,101876.16
2024-02-21T01:10:54.939Z,101866.81
2024-02-21T01:13:25.806Z,101878.28
2024-02-21T01:15:53.266Z,101880.84
2024-02-21T01:18:22.070Z,101897.88
2024-02-21T01:20:49.350Z,101905.22
2024-02-21T01:23:16.631Z,101910.59
2024-02-21T01:25:43.983Z,101833.50
2024-02-21T01:28:11.244Z,101906.16
2024-02-21T01:30:42.131Z,101857.03
2024-02-21T01:33:11.617Z,101910.59
2024-02-21T01:35:42.445Z,101907.06
2024-02-21T01:38:09.869Z,101915.47
2024-02-21T01:40:37.445Z,101901.38
2024-02-21T01:43:04.850Z,101847.69
2024-02-21T01:45:32.153Z,101895.13
2024-02-21T01:47:59.659Z,101893.91
2024-02-21T01:50:27.097Z,101886.25
2024-02-21T01:52:56.788Z,101894.34
2024-02-21T01:55:26.309Z,101890.03
2024-02-21T01:57:53.518Z,101897.47
2024-02-21T02:00:21.563Z,101854.84
2024-02-21T02:02:48.815Z,101821.13
2024-02-21T02:05:17.691Z,101893.84
2024-02-21T02:07:44.847Z,101881.28
2024-02-21T02:10:13.794Z,101896.69
2024-02-21T02:12:41.313Z,101886.22
2024-02-21T02:15:09.376Z,101888.75
2024-02-21T02:17:41.170Z,101882.88
2024-02-21T02:20:09.706Z,101858.81
2024-02-21T02:22:40.251Z,101893.47
2024-02-21T02:25:09.516Z,101892.56
2024-02-21T02:27:45.109Z,101880.16
2024-02-21T02:30:13.269Z,101823.41
2024-02-21T02:32:40.639Z,101886.31
2024-02-21T02:35:08.090Z,101896.63
2024-02-21T02:37:35.422Z,101898.03
2024-02-21T02:40:02.642Z,101897.13
2024-02-21T02:42:31.652Z,101896.38
2024-02-21T02:44:58.871Z,101903.41
2024-02-21T02:47:26.094Z,101899.22
2024-02-21T02:49:55.442Z,101849.59
2024-02-21T02:52:22.842Z,101910.09
2024-02-21T02:54:51.181Z,101889.03
2024-02-21T02:57:18.681Z,101896.94
2024-02-21T02:59:50.265Z,101899.81
2024-02-21T03:02:19.454Z,101901.59
2024-02-21T03:04:46.861Z,101901.97
2024-02-21T03:07:15.686Z,101911.72
2024-02-21T03:09:44.086Z,101902.19
2024-02-21T03:12:11.446Z,101899.69
2024-02-21T03:14:38.607Z,101897.91
2024-02-21T03:17:07.713Z,101883.22
2024-02-21T03:19:35.018Z,101835.72
2024-02-21T03:22:02.197Z,101846.31
2024-02-21T03:24:29.583Z,101893.28
2024-02-21T03:26:56.810Z,101902.16
2024-02-21T03:29:23.990Z,101864.25
2024-02-21T03:31:51.288Z,101889.97
2024-02-21T03:34:20.233Z,101895.41
2024-02-21T03:36:49.585Z,101867.66
2024-02-21T03:41:57.834Z,101850.50
2024-02-21T03:44:25.119Z,101886.13
2024-02-21T03:46:55.894Z,101872.09
2024-02-21T03:49:44.532Z,101894.44
2024-02-21T03:52:11.912Z,101901.59
2024-02-21T03:54:43.461Z,101879.78
2024-02-21T03:57:30.516Z,101917.38
2024-02-21T03:59:57.960Z,101887.59
2024-02-21T04:02:25.345Z,101875.34
2024-02-21T04:04:59.946Z,101908.94
2024-02-21T04:07:27.377Z,101857.94
2024-02-21T04:09:54.988Z,101932.19
2024-02-21T04:12:22.270Z,101923.88
2024-02-21T04:14:49.510Z,101920.63
2024-02-21T04:17:16.674Z,101927.44
2024-02-21T04:19:44.016Z,101931.75
2024-02-21T04:22:13.049Z,101934.75
2024-02-21T04:24:41.966Z,101941.75
2024-02-21T04:27:12.145Z,101942.13
2024-02-21T04:29:39.443Z,101928.03
2024-02-21T04:32:07.564Z,101898.25
2024-02-21T04:34:35.006Z,101909.69
2024-02-21T04:37:02.396Z,101949.94
2024-02-21T04:39:31.236Z,101933.38
2024-02-21T04:42:00.267Z,101953.63
2024-02-21T04:44:28.254Z,101947.72
2024-02-21T04:46:55.531Z,101953.94
2024-02-21T04:49:22.914Z,101941.06
2024-02-21T04:51:50.466Z,101925.56
2024-02-21T04:54:17.652Z,101880.91
2024-02-21T04:56:46.243Z,101927.44
2024-02-21T04:59:13.548Z,101946.84
2024-02-21T05:01:40.976Z,101928.41
2024-02-21T05:04:08.244Z,101917.81
2024-02-21T05:06:38.954Z,101894.13
2024-02-21T05:09:06.469Z,101953.88
2024-02-21T05:11:33.979Z,101905.69
2024-02-21T05:14:02.999Z,101967.44
2024-02-21T05:16:30.560Z,101950.72
2024-02-21T05:18:57.848Z,101958.09
2024-02-21T05:21:25.268Z,101965.91
2024-02-21T05:23:52.807Z,101960.88
2024-02-21T05:26:23.624Z,101935.66
2024-02-21T05:28:52.069Z,101954.97
2024-02-21T05:31:21.314Z,101951.63
2024-02-21T05:33:50.837Z,101889.69
2024-02-21T05:36:18.272Z,101944.09
2024-02-21T05:38:45.585Z,101946.06
2024-02-21T05:41:13.015Z,101896.94
2024-02-21T05:43:41.510Z,101942.72
2024-02-21T05:46:08.735Z,101893.00
2024-02-21T05:48:39.790Z,101950.91
2024-02-21T05:51:07.220Z,101945.03
2024-02-21T05:53:34.704Z,101957.28
2024-02-21T05:56:02.178Z,101940.88
2024-02-21T05:58:29.644Z,101943.56
2024-02-21T06:00:59.018Z,101936.03
2024-02-21T06:03:28.327Z,101960.59
2024-02-21T06:05:57.508Z,101948.72
2024-02-21T06:08:24.778Z,101950.69
2024-02-21T06:10:52.316Z,101896.53
2024-02-21T06:13:19.847Z,101930.16
2024-02-21T06:15:47.220Z,101898.88
2024-02-21T06:18:15.013Z,101940.28
2024-02-21T06:20:42.313Z,101944.91
2024-02-21T06:23:12.561Z,101946.84
2024-02-21T06:25:40.013Z,101947.09
2024-02-21T06:28:07.506Z,101939.41
2024-02-21T06:30:34.871Z,101944.91
2024-02-21T06:33:02.378Z,101954.69
2024-02-21T06:35:30.225Z,101944.53
2024-02-21T06:37:57.730Z,101942.09
2024-02-21T06:40:26.751Z,101904.75
2024-02-21T06:42:54.184Z,101941.72
2024-02-21T06:45:21.500Z,101929.69
2024-02-21T06:47:49.262Z,101930.78
2024-02-21T06:50:17.259Z,101914.38
2024-02-21T06:52:44.781Z,101920.81
2024-02-21T06:55:12.221Z,101865.94
2024-02-21T06:57:41.104Z,101902.94
2024-02-21T07:00:09.663Z,101893.38
2024-02-21T07:02:37.655Z,101874.28
2024-02-21T07:05:05.675Z,101906.69
2024-02-21T07:07:33.310Z,101902.44
2024-02-21T07:10:00.610Z,101907.75
2024-02-21T07:12:28.045Z,101891.38
2024-02-21T07:14:56.804Z,101864.47
2024-02-21T07:17:24.433Z,101884.66
2024-02-21T07:19:51.817Z,101883.00
2024-02-21T07:22:19.265Z,101887.44
2024-02-21T07:24:46.511Z,101876.13
2024-02-21T07:27:16.055Z,101872.69
2024-02-21T07:29:44.033Z,101843.97
2024-02-21T07:32:13.941Z,101880.66
2024-02-21T07:34:41.792Z,101856.28
2024-02-21T07:37:09.333Z,101809.25
2024-02-21T07:39:37.542Z,101884.28
2024-02-21T07:42:05.332Z,101886.09
2024-02-21T07:44:33.565Z,101884.38
2024-02-21T07:47:01.019Z,101884.41
2024-02-21T07:49:30.169Z,101873.06
2024-02-21T07:51:57.472Z,101880.00
2024-02-21T07:54:24.888Z,101881.75
2024-02-21T07:56:52.189Z,101889.59
2024-02-21T07:59:19.579Z,101872.16
2024-02-21T08:01:47.071Z,101889.59
2024-02-21T08:04:14.669Z,101844.31
2024-02-21T08:06:43.567Z,101886.16
2024-02-21T08:09:10.894Z,101886.19
2024-02-21T08:11:38.413Z,101881.78
2024-02-21T08:14:05.910Z,101875.66
2024-02-21T08:16:33.334Z,101875.66
2024-02-21T08:19:00.951Z,101860.84
2024-02-21T08:21:28.361Z,101814.63
2024-02-21T08:23:57.242Z,101880.75
2024-02-21T08:26:24.708Z,101870.31
2024-02-21T08:28:52.447Z,101879.97
2024-02-21T08:31:20.766Z,101878.19
2024-02-21T08:33:48.244Z,101872.03
2024-02-21T08:36:19.063Z,101881.66
2024-02-21T08:38:46.405Z,101864.19
2024-02-21T08:41:15.828Z,101865.00
2024-02-21T08:43:43.248Z,101825.78
2024-02-21T08:46:10.567Z,101855.38
2024-02-21T08:48:37.981Z,101871.84
2024-02-21T08:51:05.879Z,101873.63
2024-02-21T08:53:33.332Z,101858.78
2024-02-21T08:56:00.848Z,101872.78
2024-02-21T08:58:30.333Z,101869.25
2024-02-21T09:00:57.872Z,101875.31
2024-02-21T09:03:25.298Z,101878.81
2024-02-21T09:05:52.789Z,101877.91
2024-02-21T09:08:20.150Z,101878.69
2024-02-21T09:10:47.634Z,101814.28
2024-02-21T09:13:15.035Z,101870.78
2024-02-21T09:15:44.427Z,101869.97
2024-02-21T09:18:11.891Z,101863.03
2024-02-21T09:20:39.469Z,101861.31
2024-02-21T09:23:06.791Z,101849.16
2024-02-21T09:25:34.180Z,101852.63
2024-02-21T09:28:02.745Z,101856.94
2024-02-21T09:30:30.580Z,101862.16
2024-02-21T09:32:59.444Z,101855.16
2024-02-21T09:35:26.936Z,101838.56
2024-02-21T09:37:54.450Z,101846.44
2024-02-21T09:40:24.895Z,101839.31
2024-02-21T09:43:03.363Z,101833.06
2024-02-21T09:45:30.969Z,101808.50
2024-02-21T09:48:16.432Z,101797.84
2024-02-21T09:50:45.123Z,101789.88
2024-02-21T09:53:14.411Z,101825.44
2024-02-21T09:55:43.307Z,101805.47
2024-02-21T09:58:11.294Z,101770.63
2024-02-21T10:00:38.974Z,101798.44
2024-02-21T10:03:07.973Z,101800.22
2024-02-21T10:05:37.879Z,101797.53
2024-02-21T10:08:06.153Z,101787.75
2024-02-21T10:10:43.102Z,101773.78
2024-02-21T10:13:11.288Z,101781.59
2024-02-21T10:15:38.676Z,101778.81
2024-02-21T10:18:07.760Z,101765.69
2024-02-21T10:20:35.211Z,101769.91
2024-02-21T10:23:03.368Z,101762.06
2024-02-21T10:25:31.101Z,101767.38
2024-02-21T10:27:58.770Z,101738.88
2024-02-21T10:30:26.129Z,101757.88
2024-02-21T10:32:54.948Z,101743.06
2024-02-21T10:35:31.016Z,101751.41
2024-02-21T10:37:59.582Z,101740.22
2024-02-21T10:40:28.418Z,101702.00
2024-02-21T10:42:58.560Z,101751.31
2024-02-21T10:45:31.262Z,101747.78
2024-02-21T10:48:09.546Z,101739.19
2024-02-21T10:50:55.215Z,101708.69
2024-02-21T10:53:37.184Z,101741.59
2024-02-21T10:56:14.007Z,101675.59
2024-02-21T10:58:42.775Z,101728.56
2024-02-21T11:01:10.752Z,101740.72
2024-02-21T11:03:39.561Z,101726.81
2024-02-21T11:06:10.654Z,101696.44
2024-02-21T11:08:38.157Z,101686.91
2024-02-21T11:11:06.267Z,101725.22
2024-02-21T11:13:36.623Z,101729.00
2024-02-21T11:16:09.063Z,101731.00
2024-02-21T11:18:36.568Z,101731.19
2024-02-21T11:21:04.235Z,101705.22
2024-02-21T11:23:33.324Z,101703.31
2024-02-21T11:26:08.006Z,101720.56
2024-02-21T11:28:36.093Z,101717.06
2024-02-21T11:31:14.332Z,101716.16
2024-02-21T11:33:42.227Z,101710.00
2024-02-21T11:36:09.952Z,101712.63
2024-02-21T11:38:38.765Z,101723.00
2024-02-21T11:41:09.756Z,101676.03
2024-02-21T11:43:37.173Z,101664.84
2024-02-21T11:46:05.032Z,101696.09
2024-02-21T11:48:33.672Z,101709.81
2024-02-21T11:51:00.996Z,101636.78
2024-02-21T11:53:28.369Z,101700.16
2024-02-21T11:55:57.560Z,101701.91
2024-02-21T11:58:26.026Z,101703.75
2024-02-21T12:00:53.657Z,101675.19
2024-02-21T12:03:21.455Z,101687.34
2024-02-21T12:05:49.126Z,101647.25
2024-02-21T12:08:16.853Z,101697.50
2024-02-21T12:10:45.728Z,101661.25
2024-02-21T12:13:14.645Z,101681.41
2024-02-21T12:15:41.913Z,101680.56
2024-02-21T12:18:11.188Z,101689.22
2024-02-21T12:20:38.699Z,101684.78
2024-02-21T12:23:10.591Z,101682.22
2024-02-21T12:25:38.156Z,101675.22
2024-02-21T12:28:05.655Z,101657.69
2024-02-21T12:30:34.588Z,101667.25
2024-02-21T12:33:02.040Z,101667.25
2024-02-21T12:35:29.640Z,101652.44
2024-02-21T12:37:57.047Z,101666.41
2024-02-21T12:40:24.910Z,101667.31
2024-02-21T12:42:52.401Z,101661.16
2024-02-21T12:45:19.848Z,101664.63
2024-02-21T12:47:49.022Z,101677.91
2024-02-21T12:50:16.784Z,101673.59
2024-02-21T12:52:44.352Z,101656.31
2024-02-21T12:55:11.746Z,101664.97
2024-02-21T12:57:39.153Z,101619.97
2024-02-21T13:00:07.858Z,101637.41
2024-02-21T13:02:36.387Z,101668.69
2024-02-21T13:05:06.272Z,101640.06
2024-02-21T13:07:33.936Z,101654.78
2024-02-21T13:10:01.369Z,101651.38
2024-02-21T13:12:28.938Z,101666.16
2024-02-21T13:14:56.276Z,101662.63
2024-02-21T13:17:23.758Z,101655.78
2024-02-21T13:19:51.413Z,101648.81
2024-02-21T13:22:22.483Z,101667.06
2024-02-21T13:24:49.799Z,101660.06
2024-02-21T13:27:17.402Z,101615.78
2024-02-21T13:29:44.791Z,101650.53
2024-02-21T13:32:12.201Z,101657.56
2024-02-21T13:34:39.816Z,101659.31
2024-02-21T13:37:07.187Z,101661.94
2024-02-21T13:39:35.957Z,101649.84
2024-02-21T13:42:03.517Z,101669.00
2024-02-21T13:44:31.136Z,101662.84
2024-02-21T13:46:58.657Z,101655.97
2024-02-21T13:49:26.128Z,101672.47
2024-02-21T13:51:53.699Z,101678.63
2024-02-21T13:54:21.030Z,101669.00
2024-02-21T13:56:49.872Z,101667.25
2024-02-21T13:59:17.658Z,101652.47
2024-02-21T14:01:45.195Z,101658.63
2024-02-21T14:04:12.762Z,101648.22
2024-02-21T14:06:41.735Z,101637.94
2024-02-21T14:09:09.177Z,101639.84
2024-02-21T14:11:37.223Z,101659.97
2024-02-21T14:14:06.567Z,101644.41
2024-02-21T14:16:34.052Z,101649.59
2024-02-21T14:19:01.616Z,101622.75
2024-02-21T14:21:29.501Z,101657.59
2024-02-21T14:23:56.795Z,101655.00
2024-02-21T14:26:24.392Z,101663.78
2024-02-21T14:28:51.888Z,101666.44
2024-02-21T14:31:20.683Z,101658.66
2024-02-21T14:33:48.667Z,101666.56
2024-02-21T14:36:16.233Z,101672.69
2024-02-21T14:38:43.892Z,101631.84
2024-02-21T14:41:12.175Z,101657.97
2024-02-21T14:43:39.615Z,101670.97
2024-02-21T14:46:09.438Z,101588.41
2024-02-21T14:48:38.594Z,101629.31
2024-02-21T14:51:06.347Z,101678.03
2024-02-21T14:53:33.643Z,101685.84
2024-02-21T14:56:01.290Z,101691.94
2024-02-21T14:58:28.863Z,101689.31
2024-02-21T15:00:56.396Z,101638.84
2024-02-21T15:03:23.795Z,101690.22
2024-02-21T15:05:52.540Z,101638.84
2024-02-21T15:08:19.865Z,101678.84
2024-02-21T15:10:47.512Z,101693.63
2024-02-21T15:13:14.972Z,101710.13
2024-02-21T15:15:42.467Z,101698.78
2024-02-21T15:18:09.901Z,101684.81
2024-02-21T15:20:37.499Z,101719.59
2024-02-21T15:23:06.919Z,101716.94
2024-02-21T15:25:34.401Z,101716.91
2024-02-21T15:28:01.786Z,101706.41
2024-02-21T15:30:29.156Z,101721.16
2024-02-21T15:32:56.571Z,101677.53
2024-02-21T15:35:24.288Z,101691.38
2024-02-21T15:37:51.841Z,101719.28
2024-02-21T15:40:20.900Z,101690.41
2024-02-21T15:42:48.340Z,101748.63
2024-02-21T15:45:15.882Z,101731.19
2024-02-21T15:47:43.752Z,101714.56
2024-02-21T15:50:11.539Z,101729.34
2024-02-21T15:52:39.026Z,101735.38
2024-02-21T15:55:07.396Z,101746.75
2024-02-21T15:57:36.378Z,101758.88
2024-02-21T16:00:04.175Z,101757.03
2024-02-21T16:02:31.750Z,101744.78
2024-02-21T16:04:59.351Z,101750.84
2024-02-21T16:07:26.999Z,101766.44
2024-02-21T16:09:54.327Z,101778.59
2024-02-21T16:12:21.801Z,101774.16
2024-02-21T16:14:50.645Z,101760.00
2024-02-21T16:17:18.052Z,101787.06
2024-02-21T16:19:45.924Z,101787.06
2024-02-21T16:22:13.391Z,101798.22
2024-02-21T16:24:40.780Z,101794.78
2024-02-21T16:27:08.179Z,101778.25
2024-02-21T16:29:35.567Z,101757.31
2024-02-21T16:32:05.029Z,101724.19
2024-02-21T16:34:32.818Z,101753.00
2024-02-21T16:37:00.411Z,101777.44
2024-02-21T16:39:27.747Z,101729.41
2024-02-21T16:41:55.104Z,101780.91
2024-02-21T16:44:22.864Z,101772.97
2024-02-21T16:46:51.313Z,101781.59
2024-02-21T16:49:20.161Z,101799.84
2024-02-21T16:51:47.522Z,101792.81
2024-02-21T16:54:14.755Z,101804.09
2024-02-21T16:56:42.106Z,101798.88
2024-02-21T16:59:09.514Z,101805.81
2024-02-21T17:01:37.083Z,101804.88
2024-02-21T17:04:04.916Z,101810.06
2024-02-21T17:06:34.015Z,101803.91
2024-02-21T17:09:01.670Z,101809.97
2024-02-21T17:11:29.560Z,101801.31
2024-02-21T17:13:57.470Z,101795.13
2024-02-21T17:16:24.830Z,101796.91
2024-02-21T17:18:52.354Z,101807.28
2024-02-21T17:21:19.880Z,101740.09
2024-02-21T17:23:49.031Z,101810.78
2024-02-21T17:26:16.430Z,101789.78
2024-02-21T17:28:44.098Z,101802.88
2024-02-21T17:31:11.638Z,101797.66
2024-02-21T17:33:39.152Z,101798.44
2024-02-21T17:36:09.882Z,101800.25
2024-02-21T17:38:37.863Z,101801.94
2024-02-21T17:41:06.698Z,101802.84
2024-02-21T17:43:34.293Z,101803.63
2024-02-21T17:46:02.112Z,101728.44
2024-02-21T17:48:29.942Z,101770.25
2024-02-21T17:50:57.695Z,101772.94
2024-02-21T17:53:25.209Z,101810.38
2024-02-21T17:55:52.829Z,101813.72
2024-02-21T17:58:22.111Z,101812.06
2024-02-21T18:00:49.553Z,101812.13
2024-02-21T18:03:16.765Z,101779.84
2024-02-21T18:05:44.215Z,101812.03
2024-02-21T18:08:11.596Z,101757.91
2024-02-21T18:10:39.211Z,101810.25
2024-02-21T18:13:07.975Z,101800.66
2024-02-21T18:15:36.766Z,101801.19
2024-02-21T18:18:04.765Z,101795.78
2024-02-21T18:20:32.266Z,101790.53
2024-02-21T18:22:59.694Z,101790.34
2024-02-21T18:25:27.161Z,101780.47
2024-02-21T18:27:54.695Z,101779.38
2024-02-21T18:30:22.493Z,101794.13
2024-02-21T18:32:51.489Z,101727.31
2024-02-21T18:35:19.255Z,101713.91
2024-02-21T18:37:46.826Z,101782.00
2024-02-21T18:40:14.366Z,101784.59
2024-02-21T18:42:41.893Z,101792.25
2024-02-21T18:45:10.148Z,101788.44
2024-02-21T18:47:38.230Z,101773.28
2024-02-21T18:50:08.923Z,101788.25
2024-02-21T18:52:36.547Z,101789.09
2024-02-21T18:55:04.436Z,101786.22
2024-02-21T18:57:31.887Z,101797.44
2024-02-21T18:59:59.175Z,101801.72
2024-02-21T19:02:26.498Z,101791.13
2024-02-21T19:04:54.188Z,101816.97
2024-02-21T19:07:23.280Z,101790.50
2024-02-21T19:09:50.870Z,101769.41
2024-02-21T19:12:18.331Z,101759.84
2024-02-21T19:14:45.840Z,101819.19
2024-02-21T19:17:13.189Z,101797.66
2024-02-21T19:19:40.664Z,101803.78
2024-02-21T19:22:08.134Z,101805.44
2024-02-21T19:24:37.538Z,101807.06
2024-02-21T19:27:05.338Z,101801.50
2024-02-21T19:29:32.831Z,101798.44
2024-02-21T19:32:00.119Z,101785.97
2024-02-21T19:34:28.909Z,101789.94
2024-02-21T19:36:56.446Z,101781.53
2024-02-21T19:39:23.852Z,101791.94
2024-02-21T19:41:52.789Z,101774.25
2024-02-21T19:44:20.292Z,101792.38
2024-02-21T19:46:48.737Z,101700.38
2024-02-21T19:49:16.455Z,101793.38
2024-02-21T19:51:45.894Z,101792.38
2024-02-21T19:54:23.335Z,101790.63
2024-02-21T19:56:53.489Z,101788.75
2024-02-21T19:59:20.882Z,101737.00
2024-02-21T20:01:48.496Z,101727.41
2024-02-21T20:04:15.992Z,101784.88
2024-02-21T20:06:43.298Z,101745.44
2024-02-21T20:09:10.856Z,101762.66
2024-02-21T20:11:39.089Z,101769.41
2024-02-21T20:14:08.230Z,101776.09
2024-02-21T20:16:35.861Z,101778.88
2024-02-21T20:19:03.386Z,101776.53
2024-02-21T20:21:31.119Z,101786.25
2024-02-21T20:23:58.337Z,101780.00
2024-02-21T20:26:26.114Z,101777.22
2024-02-21T20:28:53.539Z,101775.25
2024-02-21T20:31:22.462Z,101778.06
2024-02-21T20:33:49.791Z,101776.91
2024-02-21T20:36:17.472Z,101745.25
2024-02-21T20:38:44.864Z,101777.84
2024-02-21T20:41:18.673Z,101781.47
2024-02-21T20:43:46.160Z,101778.81
2024-02-21T20:46:14.307Z,101771.94
2024-02-21T20:48:43.108Z,101753.31
2024-02-21T20:51:10.563Z,101774.13
2024-02-21T20:53:37.932Z,101768.53
2024-02-21T20:56:06.145Z,101771.72
2024-02-21T20:58:33.578Z,101769.59
2024-02-21T21:01:01.266Z,101744.00
2024-02-21T21:03:31.331Z,101772.22
2024-02-21T21:06:01.336Z,101768.69
2024-02-21T21:08:28.681Z,101770.53
2024-02-21T21:10:56.226Z,101759.47
2024-02-21T21:13:30.705Z,101768.66
2024-02-21T21:16:03.078Z,101767.66
2024-02-21T21:18:30.868Z,101762.31
2024-02-21T21:20:58.911Z,101761.47
2024-02-21T21:23:28.260Z,101755.69
2024-02-21T21:25:56.431Z,101718.59
2024-02-21T21:28:23.942Z,101742.81
2024-02-21T21:30:51.360Z,101749.09
2024-02-21T21:33:19.764Z,101751.06
2024-02-21T21:35:47.737Z,101744.25
2024-02-21T21:38:15.382Z,101739.75
2024-02-21T21:40:44.964Z,101733.56
2024-02-21T21:43:12.324Z,101737.38
2024-02-21T21:45:39.536Z,101728.63
2024-02-21T21:48:07.994Z,101728.03
2024-02-21T21:50:35.366Z,101734.66
2024-02-21T21:53:02.650Z,101731.22
2024-02-21T21:55:30.216Z,101735.31
2024-02-21T21:57:58.930Z,101750.22
2024-02-21T22:00:26.179Z,101748.63
2024-02-21T22:02:53.475Z,101740.38
2024-02-21T22:05:21.098Z,101732.50
2024-02-21T22:07:48.732Z,101712.81
2024-02-21T22:10:16.185Z,101729.56
2024-02-21T22:12:43.478Z,101726.25
2024-02-21T22:15:12.234Z,101673.03
2024-02-21T22:17:39.596Z,101682.72
2024-02-21T22:20:07.900Z,101728.03
2024-02-21T22:22:35.280Z,101723.59
2024-02-21T22:25:02.770Z,101721.81
2024-02-21T22:27:30.273Z,101675.63
2024-02-21T22:29:57.623Z,101709.16
2024-02-21T22:32:26.462Z,101707.78
2024-02-21T22:34:53.902Z,101680.63
2024-02-21T22:37:21.214Z,101719.97
2024-02-21T22:39:48.458Z,101710.06
2024-02-21T22:42:15.717Z,101626.72
2024-02-21T22:44:43.264Z,101722.19
2024-02-21T22:47:10.795Z,101714.31
2024-02-21T22:49:39.445Z,101714.66
2024-02-21T22:52:07.197Z,101704.13
2024-02-21T22:54:34.660Z,101724.50
2024-02-21T22:57:02.116Z,101709.84
2024-02-21T22:59:30.651Z,101715.22
2024-02-21T23:01:58.609Z,101714.19
2024-02-21T23:04:26.043Z,101720.28
2024-02-21T23:06:54.796Z,101696.53
2024-02-21T23:09:22.093Z,101715.66
2024-02-21T23:11:49.637Z,101717.53
2024-02-21T23:14:17.011Z,101721.22
2024-02-21T23:16:44.336Z,101717.75
2024-02-21T23:19:11.671Z,101720.00
2024-02-21T23:21:38.909Z,101713.72
2024-02-21T23:24:08.034Z,101700.50
2024-02-21T23:26:35.768Z,101709.09
2024-02-21T23:29:03.531Z,101724.66
2024-02-21T23:31:31.665Z,101722.34
2024-02-21T23:33:59.160Z,101711.88
2024-02-21T23:36:26.676Z,101667.88
2024-02-21T23:38:54.050Z,101719.50
2024-02-21T23:41:22.699Z,101701.06
2024-02-21T23:43:50.137Z,101701.91
2024-02-21T23:46:17.503Z,101688.91
2024-02-21T23:48:44.752Z,101712.69
2024-02-21T23:51:12.207Z,101710.22
2024-02-21T23:53:39.454Z,101701.38
2024-02-21T23:56:08.653Z,101695.16
2024-02-21T23:58:38.491Z,101701.03
